createdAt,value
2017-01-17T00:00:33.802Z,77.33
2017-01-17T00:00:55.496Z,77.35
2017-01-17T00:01:17.210Z,77.50
2017-01-17T00:01:43.709Z,77.58
2017-01-17T00:02:10.179Z,77.52
2017-01-17T00:02:31.893Z,77.56
2017-01-17T00:02:58.400Z,77.45
2017-01-17T00:03:20.105Z,77.44
2017-01-17T00:03:41.801Z,77.53
2017-01-17T00:04:03.516Z,77.51
2017-01-17T00:04:25.215Z,77.55
2017-01-17T00:04:51.699Z,77.48
2017-01-17T00:05:13.420Z,77.33
2017-01-17T00:05:35.128Z,77.22
2017-01-17T00:06:01.595Z,77.26
2017-01-17T00:06:23.294Z,77.11
2017-01-17T00:06:44.985Z,77.21
2017-01-17T00:07:11.455Z,77.20
2017-01-17T00:07:33.155Z,77.33
2017-01-17T00:07:54.863Z,77.33
2017-01-17T00:08:21.343Z,77.38
2017-01-17T00:08:43.039Z,77.33
2017-01-17T00:09:09.507Z,77.35
2017-01-17T00:09:31.197Z,77.39
2017-01-17T00:09:57.666Z,77.48
2017-01-17T00:10:19.363Z,77.46
2017-01-17T00:10:45.833Z,77.34
2017-01-17T00:11:07.526Z,77.34
2017-01-17T00:11:34.005Z,77.41
2017-01-17T00:11:55.707Z,77.64
2017-01-17T00:12:17.423Z,77.83
2017-01-17T00:12:39.126Z,77.72
2017-01-17T00:13:00.831Z,77.67
2017-01-17T00:13:22.562Z,77.56
2017-01-17T00:14:25.081Z,77.60
2017-01-17T00:14:46.779Z,77.60
2017-01-17T00:15:49.828Z,77.75
2017-01-17T00:16:11.616Z,77.69
2017-01-17T00:16:33.319Z,77.60
2017-01-17T00:16:55.023Z,77.60
2017-01-17T00:17:16.724Z,77.58
2017-01-17T00:17:43.199Z,77.75
2017-01-17T00:18:04.936Z,77.84
2017-01-17T00:18:31.428Z,77.76
2017-01-17T00:18:53.128Z,77.78
2017-01-17T00:19:14.840Z,77.77
2017-01-17T00:20:34.597Z,77.65
2017-01-17T00:21:01.468Z,77.69
2017-01-17T00:21:23.166Z,77.66
2017-01-17T00:21:44.865Z,77.54
2017-01-17T00:22:06.566Z,77.35
2017-01-17T00:22:28.281Z,77.38
2017-01-17T00:22:50.062Z,77.57
2017-01-17T00:23:11.781Z,77.49
2017-01-17T00:23:33.500Z,77.36
2017-01-17T00:23:55.189Z,77.40
2017-01-17T00:24:16.894Z,77.44
2017-01-17T00:24:38.681Z,77.60
2017-01-17T00:25:00.379Z,77.79
2017-01-17T00:25:26.869Z,77.77
2017-01-17T00:25:48.568Z,77.92
2017-01-17T00:26:10.358Z,77.77
2017-01-17T00:26:32.059Z,77.77
2017-01-17T00:26:53.759Z,77.67
2017-01-17T00:27:15.450Z,77.70
2017-01-17T00:27:37.153Z,77.57
2017-01-17T00:27:58.845Z,77.61
2017-01-17T00:28:25.320Z,77.45
2017-01-17T00:28:47.042Z,77.39
2017-01-17T00:29:08.743Z,77.29
2017-01-17T00:29:30.446Z,77.32
2017-01-17T00:29:52.160Z,77.21
2017-01-17T00:30:13.863Z,77.25
2017-01-17T00:30:40.334Z,77.29
2017-01-17T00:31:02.040Z,77.32
2017-01-17T00:31:23.735Z,77.22
2017-01-17T00:31:50.218Z,77.28
2017-01-17T00:32:11.931Z,77.40
2017-01-17T00:32:33.640Z,77.56
2017-01-17T00:33:00.126Z,77.57
2017-01-17T00:33:21.822Z,77.67
2017-01-17T00:33:43.536Z,77.68
2017-01-17T00:34:05.259Z,77.72
2017-01-17T00:34:27.035Z,77.67
2017-01-17T00:34:48.744Z,77.67
2017-01-17T00:35:10.446Z,77.71
2017-01-17T00:35:32.146Z,77.54
2017-01-17T00:35:58.625Z,77.56
2017-01-17T00:36:20.321Z,77.65
2017-01-17T00:36:51.582Z,77.85
2017-01-17T00:37:13.277Z,77.71
2017-01-17T00:37:44.534Z,77.74
2017-01-17T00:38:06.232Z,77.80
2017-01-17T00:38:27.942Z,77.67
2017-01-17T00:38:49.747Z,77.55
2017-01-17T00:39:11.434Z,77.42
2017-01-17T00:39:42.688Z,77.46
2017-01-17T00:40:04.381Z,77.45
2017-01-17T00:40:30.851Z,77.32
2017-01-17T00:40:52.552Z,77.21
2017-01-17T00:41:19.031Z,77.14
2017-01-17T00:41:40.727Z,76.97
2017-01-17T00:42:02.436Z,77.12
2017-01-17T00:42:28.912Z,77.15
2017-01-17T00:42:50.716Z,77.12
2017-01-17T00:43:12.413Z,77.19
2017-01-17T00:43:34.119Z,77.12
2017-01-17T00:43:55.824Z,77.05
2017-01-17T00:44:17.527Z,76.94
2017-01-17T00:44:39.247Z,76.96
2017-01-17T00:45:01.043Z,76.96
2017-01-17T00:45:22.756Z,76.95
2017-01-17T00:45:49.245Z,76.95
2017-01-17T00:46:10.937Z,76.81
2017-01-17T00:46:32.726Z,76.79
2017-01-17T00:46:59.199Z,76.66
2017-01-17T00:47:20.931Z,76.76
2017-01-17T00:47:42.614Z,76.77
2017-01-17T00:48:04.314Z,76.70
2017-01-17T00:48:26.108Z,76.67
2017-01-17T00:48:47.810Z,76.59
2017-01-17T00:49:09.520Z,76.54
2017-01-17T00:49:31.219Z,76.43
2017-01-17T00:49:52.921Z,76.29
2017-01-17T00:50:14.721Z,76.33
2017-01-17T00:50:36.424Z,76.40
2017-01-17T00:51:07.674Z,76.20
2017-01-17T00:51:32.205Z,76.37
2017-01-17T00:52:03.472Z,76.41
2017-01-17T00:52:25.168Z,76.30
2017-01-17T00:53:28.499Z,76.49
2017-01-17T00:54:12.048Z,76.37
2017-01-17T00:54:59.013Z,76.22
2017-01-17T00:55:20.792Z,76.16
2017-01-17T00:55:42.585Z,76.10
2017-01-17T00:56:13.825Z,76.32
2017-01-17T00:56:35.633Z,76.28
2017-01-17T00:57:38.697Z,76.10
2017-01-17T00:58:00.396Z,76.16
2017-01-17T00:58:22.104Z,76.32
2017-01-17T01:00:11.397Z,76.43
2017-01-17T01:00:33.087Z,76.41
2017-01-17T01:00:54.805Z,76.44
2017-01-17T01:01:26.070Z,76.59
2017-01-17T01:01:47.778Z,76.49
2017-01-17T01:02:09.518Z,76.55
2017-01-17T01:02:31.231Z,76.37
2017-01-17T01:02:52.926Z,76.27
2017-01-17T01:03:14.693Z,76.20
2017-01-17T01:03:45.967Z,76.37
2017-01-17T01:04:07.637Z,76.48
2017-01-17T01:04:29.333Z,76.41
2017-01-17T01:04:55.825Z,76.53
2017-01-17T01:05:17.535Z,76.27
2017-01-17T01:05:44.043Z,76.17
2017-01-17T01:06:05.748Z,76.21
2017-01-17T01:06:37.007Z,76.23
2017-01-17T01:06:58.701Z,76.17
2017-01-17T01:07:29.972Z,76.05
2017-01-17T01:07:51.661Z,76.09
2017-01-17T01:08:13.365Z,76.18
2017-01-17T01:09:11.669Z,76.01
2017-01-17T01:09:33.371Z,76.17
2017-01-17T01:10:04.616Z,76.30
2017-01-17T01:10:26.303Z,76.27
2017-01-17T01:10:57.573Z,76.20
2017-01-17T01:11:19.243Z,76.42
2017-01-17T01:11:50.503Z,76.23
2017-01-17T01:12:12.193Z,75.91
2017-01-17T01:12:43.445Z,75.89
2017-01-17T01:13:07.756Z,75.88
2017-01-17T01:13:29.496Z,75.82
2017-01-17T01:13:55.959Z,75.90
2017-01-17T01:14:17.672Z,76.00
2017-01-17T01:14:39.377Z,76.06
2017-01-17T01:15:01.070Z,75.98
2017-01-17T01:15:32.347Z,76.00
2017-01-17T01:15:54.054Z,76.14
2017-01-17T01:17:12.184Z,76.25
2017-01-17T01:17:34.014Z,76.18
2017-01-17T01:18:39.684Z,75.99
2017-01-17T01:19:01.408Z,75.95
2017-01-17T01:19:32.679Z,76.11
2017-01-17T01:19:54.373Z,76.07
2017-01-17T01:20:25.642Z,76.02
2017-01-17T01:20:47.342Z,75.99
2017-01-17T01:21:09.044Z,76.11
2017-01-17T01:21:35.648Z,76.20
2017-01-17T01:22:02.119Z,76.26
2017-01-17T01:22:28.600Z,76.17
2017-01-17T01:22:50.347Z,76.18
2017-01-17T01:23:16.852Z,76.18
2017-01-17T01:23:38.544Z,76.06
2017-01-17T01:24:09.926Z,75.75
2017-01-17T01:24:31.552Z,75.80
2017-01-17T01:24:58.028Z,75.90
2017-01-17T01:25:19.735Z,76.02
2017-01-17T01:25:46.236Z,75.85
2017-01-17T01:26:07.978Z,75.74
2017-01-17T01:26:34.499Z,75.74
2017-01-17T01:26:56.214Z,75.66
2017-01-17T01:27:17.923Z,75.62
2017-01-17T01:27:39.619Z,75.78
2017-01-17T01:28:01.310Z,75.94
2017-01-17T01:28:23.051Z,75.88
2017-01-17T01:28:54.327Z,75.80
2017-01-17T01:29:15.998Z,75.78
2017-01-17T01:29:37.756Z,75.85
2017-01-17T01:30:04.234Z,75.82
2017-01-17T01:30:25.929Z,75.73
2017-01-17T01:30:47.619Z,75.61
2017-01-17T01:31:18.900Z,75.78
2017-01-17T01:31:40.596Z,75.87
2017-01-17T01:32:02.301Z,75.80
2017-01-17T01:32:24.058Z,75.67
2017-01-17T01:32:45.763Z,75.49
2017-01-17T01:37:25.357Z,75.76
2017-01-17T01:38:13.734Z,75.74
2017-01-17T01:38:57.351Z,75.99
2017-01-17T01:39:24.405Z,75.90
2017-01-17T01:39:46.135Z,75.86
2017-01-17T01:40:07.898Z,75.71
2017-01-17T01:40:29.618Z,75.69
2017-01-17T01:40:51.311Z,75.69
2017-01-17T01:41:59.250Z,75.61
2017-01-17T01:42:42.953Z,75.67
2017-01-17T01:43:09.971Z,75.48
2017-01-17T01:43:31.663Z,75.59
2017-01-17T01:43:58.141Z,75.60
2017-01-17T01:44:19.898Z,75.53
2017-01-17T01:44:41.549Z,75.51
2017-01-17T01:45:44.754Z,75.57
2017-01-17T01:46:06.464Z,75.68
2017-01-17T01:46:28.217Z,75.61
2017-01-17T01:46:59.526Z,75.70
2017-01-17T01:47:21.183Z,75.57
2017-01-17T01:48:40.810Z,75.69
2017-01-17T01:49:22.828Z,75.84
2017-01-17T01:49:44.524Z,75.79
2017-01-17T01:50:52.552Z,75.58
2017-01-17T01:51:36.184Z,75.56
2017-01-17T01:52:19.861Z,75.69
2017-01-17T01:52:42.136Z,75.64
2017-01-17T01:53:03.827Z,75.45
2017-01-17T01:53:25.557Z,75.42
2017-01-17T01:53:52.050Z,75.46
2017-01-17T01:54:16.463Z,75.52
2017-01-17T01:54:38.169Z,75.64
2017-01-17T01:54:59.864Z,75.61
2017-01-17T01:55:31.126Z,75.66
2017-01-17T01:55:52.827Z,75.69
2017-01-17T01:56:19.305Z,75.45
2017-01-17T01:56:41.014Z,75.39
2017-01-17T01:57:12.271Z,75.53
2017-01-17T01:57:33.962Z,75.63
2017-01-17T01:57:55.671Z,75.69
2017-01-17T01:58:22.212Z,75.88
2017-01-17T01:58:43.944Z,75.71
2017-01-17T01:59:05.651Z,75.66
2017-01-17T01:59:37.027Z,75.63
2017-01-17T01:59:58.665Z,75.47
2017-01-17T02:00:29.944Z,75.36
2017-01-17T02:00:51.723Z,75.32
2017-01-17T02:01:13.430Z,75.39
2017-01-17T02:01:44.728Z,75.65
2017-01-17T02:02:06.418Z,75.69
2017-01-17T02:02:32.909Z,75.83
2017-01-17T02:02:54.642Z,75.78
2017-01-17T02:03:21.119Z,75.58
2017-01-17T02:03:42.822Z,75.63
2017-01-17T02:04:04.524Z,75.63
2017-01-17T02:04:31.004Z,75.61
2017-01-17T02:04:52.714Z,75.63
2017-01-17T02:05:14.486Z,75.64
2017-01-17T02:05:36.190Z,75.67
2017-01-17T02:05:57.893Z,75.60
2017-01-17T02:06:24.443Z,75.50
2017-01-17T02:06:46.145Z,75.54
2017-01-17T02:07:07.851Z,75.66
2017-01-17T02:07:29.558Z,75.69
2017-01-17T02:07:51.298Z,75.68
2017-01-17T02:08:54.501Z,75.63
2017-01-17T02:09:16.769Z,75.58
2017-01-17T02:09:38.485Z,75.64
2017-01-17T02:10:02.198Z,75.62
2017-01-17T02:10:23.890Z,75.63
2017-01-17T02:10:50.466Z,75.62
2017-01-17T02:11:12.173Z,75.59
2017-01-17T02:11:33.867Z,75.56
2017-01-17T02:12:00.344Z,75.56
2017-01-17T02:12:22.216Z,75.36
2017-01-17T02:13:34.270Z,75.47
2017-01-17T02:13:56.200Z,75.44
2017-01-17T02:14:27.455Z,75.39
2017-01-17T02:14:49.240Z,75.48
2017-01-17T02:15:10.978Z,75.25
2017-01-17T02:15:37.423Z,75.29
2017-01-17T02:15:59.218Z,75.29
2017-01-17T02:16:30.477Z,75.31
2017-01-17T02:16:52.185Z,75.21
2017-01-17T02:17:18.665Z,75.12
2017-01-17T02:17:40.459Z,75.04
2017-01-17T02:18:02.166Z,74.99
2017-01-17T02:19:00.502Z,74.74
2017-01-17T02:19:22.216Z,74.75
2017-01-17T02:19:48.690Z,74.81
2017-01-17T02:20:10.401Z,74.51
2017-01-17T02:20:32.198Z,74.41
2017-01-17T02:20:53.909Z,74.56
2017-01-17T02:21:15.620Z,74.68
2017-01-17T02:21:37.327Z,74.65
2017-01-17T02:22:44.620Z,74.62
2017-01-17T02:23:06.319Z,74.68
2017-01-17T02:23:32.800Z,74.44
2017-01-17T02:23:54.495Z,74.52
2017-01-17T02:24:16.236Z,74.41
2017-01-17T02:24:37.932Z,74.36
2017-01-17T02:24:59.643Z,74.33
2017-01-17T02:25:21.347Z,74.31
2017-01-17T02:25:52.606Z,74.33
2017-01-17T02:26:14.323Z,74.33
2017-01-17T02:26:36.129Z,74.34
2017-01-17T02:27:02.604Z,74.31
2017-01-17T02:27:24.309Z,74.22
2017-01-17T02:27:46.012Z,74.30
2017-01-17T02:28:12.488Z,74.35
2017-01-17T02:29:15.586Z,74.36
2017-01-17T02:29:37.399Z,74.44
2017-01-17T02:29:59.106Z,74.46
2017-01-17T02:30:30.355Z,74.17
2017-01-17T02:30:52.181Z,74.08
2017-01-17T02:32:00.245Z,74.25
2017-01-17T02:32:43.817Z,74.17
2017-01-17T02:33:06.070Z,74.12
2017-01-17T02:33:27.785Z,74.07
2017-01-17T02:33:49.493Z,73.96
2017-01-17T02:34:20.745Z,74.09
2017-01-17T02:34:42.463Z,74.15
2017-01-17T02:35:04.164Z,74.02
2017-01-17T02:35:58.341Z,73.86
2017-01-17T02:36:20.046Z,73.87
2017-01-17T02:36:41.747Z,73.99
2017-01-17T02:37:03.588Z,73.89
2017-01-17T02:37:25.231Z,73.78
2017-01-17T02:37:51.711Z,73.54
2017-01-17T02:38:13.409Z,73.55
2017-01-17T02:38:39.881Z,73.52
2017-01-17T02:39:01.576Z,73.64
2017-01-17T02:42:13.304Z,74.06
2017-01-17T02:42:35.116Z,74.04
2017-01-17T02:42:56.828Z,74.15
2017-01-17T02:43:18.529Z,74.14
2017-01-17T02:43:40.236Z,74.06
2017-01-17T02:44:02.036Z,74.01
2017-01-17T02:44:28.527Z,74.01
2017-01-17T02:44:50.222Z,74.10
2017-01-17T02:45:11.927Z,74.17
2017-01-17T02:45:38.405Z,74.42
2017-01-17T02:46:00.105Z,74.43
2017-01-17T02:46:21.814Z,74.35
2017-01-17T02:46:48.291Z,74.24
2017-01-17T02:47:09.996Z,74.22
2017-01-17T02:47:41.253Z,74.40
2017-01-17T02:48:02.948Z,74.47
2017-01-17T02:48:24.657Z,74.46
2017-01-17T02:48:55.921Z,74.40
2017-01-17T02:49:17.631Z,74.44
2017-01-17T02:49:48.979Z,74.52
2017-01-17T02:50:11.394Z,74.58
2017-01-17T02:50:37.860Z,74.75
2017-01-17T02:50:59.595Z,74.68
2017-01-17T02:52:02.706Z,74.71
2017-01-17T02:52:49.935Z,74.53
2017-01-17T02:53:11.663Z,74.58
2017-01-17T02:54:14.767Z,74.53
2017-01-17T02:55:03.118Z,74.59
2017-01-17T02:55:50.089Z,74.76
2017-01-17T02:56:11.828Z,74.74
2017-01-17T02:56:33.545Z,74.71
2017-01-17T02:56:55.253Z,74.73
2017-01-17T02:57:16.955Z,74.58
2017-01-17T02:57:38.673Z,74.52
2017-01-17T02:58:00.380Z,74.37
2017-01-17T02:58:22.076Z,74.34
2017-01-17T02:58:43.768Z,74.45
2017-01-17T02:59:15.032Z,74.53
2017-01-17T02:59:36.719Z,74.60
2017-01-17T03:00:03.209Z,74.69
2017-01-17T03:00:24.902Z,74.70
2017-01-17T03:00:46.613Z,74.76
2017-01-17T03:01:10.824Z,74.74
2017-01-17T03:02:09.225Z,74.65
2017-01-17T03:02:30.924Z,74.67
2017-01-17T03:02:57.401Z,74.65
2017-01-17T03:03:19.099Z,74.80
2017-01-17T03:03:40.795Z,74.86
2017-01-17T03:04:02.504Z,74.69
2017-01-17T03:04:24.194Z,74.70
2017-01-17T03:04:45.922Z,74.78
2017-01-17T03:05:17.173Z,74.83
2017-01-17T03:05:38.865Z,74.82
2017-01-17T03:06:10.115Z,74.80
2017-01-17T03:06:31.804Z,74.79
2017-01-17T03:06:58.291Z,74.76
2017-01-17T03:09:22.440Z,74.65
2017-01-17T03:09:44.225Z,74.68
2017-01-17T03:10:10.801Z,74.60
2017-01-17T03:10:32.588Z,74.76
2017-01-17T03:10:54.390Z,74.83
2017-01-17T03:11:16.230Z,74.91
2017-01-17T03:11:38.041Z,74.94
2017-01-17T03:12:04.616Z,74.90
2017-01-17T03:12:26.392Z,74.86
2017-01-17T03:12:52.958Z,75.00
2017-01-17T03:13:14.745Z,74.96
2017-01-17T03:13:41.214Z,75.00
2017-01-17T03:14:02.923Z,74.89
2017-01-17T03:14:24.716Z,75.03
2017-01-17T03:15:44.459Z,74.82
2017-01-17T03:16:28.106Z,75.09
2017-01-17T03:17:10.221Z,75.28
2017-01-17T03:17:32.060Z,75.44
2017-01-17T03:17:53.885Z,75.38
2017-01-17T03:18:20.456Z,75.38
2017-01-17T03:18:42.249Z,75.48
2017-01-17T03:19:04.043Z,75.60
2017-01-17T03:20:27.059Z,75.52
2017-01-17T03:20:48.940Z,75.54
2017-01-17T03:21:10.750Z,75.62
2017-01-17T03:21:42.005Z,75.70
2017-01-17T03:22:03.877Z,75.63
2017-01-17T03:22:35.132Z,75.66
2017-01-17T03:22:56.854Z,75.47
2017-01-17T03:24:08.982Z,75.64
2017-01-17T03:24:31.177Z,75.61
2017-01-17T03:25:43.999Z,75.50
2017-01-17T03:26:10.995Z,75.53
2017-01-17T03:26:32.997Z,75.65
2017-01-17T03:26:54.899Z,75.73
2017-01-17T03:27:21.391Z,75.74
2017-01-17T03:27:43.091Z,75.75
2017-01-17T03:28:05.023Z,75.85
2017-01-17T03:28:36.277Z,76.00
2017-01-17T03:28:57.982Z,76.10
2017-01-17T03:30:05.402Z,75.81
2017-01-17T03:30:27.244Z,75.75
2017-01-17T03:30:53.910Z,75.58
2017-01-17T03:31:15.622Z,75.60
2017-01-17T03:31:42.153Z,75.66
2017-01-17T03:32:08.683Z,75.68
2017-01-17T03:32:31.114Z,75.78
2017-01-17T03:32:57.596Z,75.68
2017-01-17T03:33:19.612Z,75.86
2017-01-17T03:33:41.640Z,75.92
2017-01-17T03:34:03.404Z,75.98
2017-01-17T03:34:25.166Z,76.05
2017-01-17T03:34:47.061Z,76.06
2017-01-17T03:35:18.498Z,75.90
2017-01-17T03:35:40.445Z,75.77
2017-01-17T03:36:53.542Z,75.79
2017-01-17T03:37:42.051Z,75.76
2017-01-17T03:38:09.111Z,75.82
2017-01-17T03:38:31.258Z,75.75
2017-01-17T03:39:02.553Z,75.69
2017-01-17T03:39:24.272Z,75.58
2017-01-17T03:39:46.304Z,75.69
2017-01-17T03:40:17.549Z,75.89
2017-01-17T03:40:39.277Z,75.93
2017-01-17T03:41:51.471Z,75.90
2017-01-17T03:42:13.484Z,76.04
2017-01-17T03:43:20.836Z,75.57
2017-01-17T03:43:42.585Z,75.47
2017-01-17T03:44:09.084Z,75.37
2017-01-17T03:45:06.948Z,75.46
2017-01-17T03:45:28.659Z,75.28
2017-01-17T03:45:59.968Z,74.93
2017-01-17T03:46:21.662Z,74.93
2017-01-17T03:46:43.373Z,74.85
2017-01-17T03:47:05.649Z,74.84
2017-01-17T03:47:27.414Z,74.99
2017-01-17T03:47:53.898Z,74.98
2017-01-17T03:48:15.965Z,75.02
2017-01-17T03:48:47.212Z,75.11
2017-01-17T03:49:09.043Z,75.28
2017-01-17T03:49:40.441Z,75.24
2017-01-17T03:50:02.132Z,75.22
2017-01-17T03:50:28.621Z,75.26
2017-01-17T03:50:50.330Z,75.35
2017-01-17T03:51:12.259Z,75.31
2017-01-17T03:51:38.849Z,75.07
2017-01-17T03:52:00.544Z,75.05
2017-01-17T03:52:22.397Z,75.09
2017-01-17T03:52:49.043Z,75.09
2017-01-17T03:53:10.886Z,75.23
2017-01-17T03:54:14.486Z,75.27
2017-01-17T03:54:36.185Z,75.25
2017-01-17T03:54:58.172Z,75.25
2017-01-17T03:55:24.773Z,75.22
2017-01-17T03:55:46.489Z,75.07
2017-01-17T03:56:13.021Z,74.65
2017-01-17T03:56:34.843Z,74.64
2017-01-17T03:56:56.710Z,74.65
2017-01-17T03:58:02.054Z,74.79
2017-01-17T03:58:23.805Z,74.84
2017-01-17T03:58:46.639Z,74.78
2017-01-17T03:59:08.349Z,74.84
2017-01-17T03:59:30.090Z,75.00
2017-01-17T03:59:56.816Z,75.03
2017-01-17T04:00:23.384Z,74.98
2017-01-17T04:00:45.108Z,74.98
2017-01-17T04:01:43.649Z,75.01
2017-01-17T04:02:05.440Z,75.00
2017-01-17T04:02:32.058Z,75.16
2017-01-17T04:02:53.806Z,75.20
2017-01-17T04:03:56.942Z,75.29
2017-01-17T04:04:18.654Z,75.36
2017-01-17T04:05:25.963Z,75.35
2017-01-17T04:05:47.821Z,75.36
2017-01-17T04:06:14.315Z,75.38
2017-01-17T04:06:36.100Z,75.30
2017-01-17T04:07:02.654Z,75.22
2017-01-17T04:07:24.410Z,75.17
2017-01-17T04:08:26.949Z,75.31
2017-01-17T04:08:49.002Z,75.39
2017-01-17T04:10:01.121Z,75.24
2017-01-17T04:10:22.837Z,75.38
2017-01-17T04:11:34.938Z,75.34
2017-01-17T04:11:56.647Z,75.36
2017-01-17T04:13:00.093Z,75.25
2017-01-17T04:13:21.896Z,75.21
2017-01-17T04:13:43.636Z,75.15
2017-01-17T04:14:10.346Z,75.13
2017-01-17T04:14:32.119Z,75.28
2017-01-17T04:15:39.557Z,75.52
2017-01-17T04:16:01.313Z,75.61
2017-01-17T04:16:23.064Z,75.55
2017-01-17T04:16:54.490Z,75.55
2017-01-17T04:17:16.119Z,75.59
2017-01-17T04:17:42.689Z,75.54
2017-01-17T04:18:04.487Z,75.46
2017-01-17T04:18:35.810Z,75.48
2017-01-17T04:18:57.492Z,75.56
2017-01-17T04:19:19.317Z,75.44
2017-01-17T04:19:45.804Z,75.43
2017-01-17T04:20:07.521Z,75.59
2017-01-17T04:20:29.249Z,75.78
2017-01-17T04:21:00.512Z,75.86
2017-01-17T04:21:22.216Z,75.97
2017-01-17T04:21:43.915Z,75.92
2017-01-17T04:22:15.197Z,75.80
2017-01-17T04:22:36.916Z,75.73
2017-01-17T04:23:48.974Z,75.56
2017-01-17T04:24:10.683Z,75.50
2017-01-17T04:24:41.992Z,75.58
2017-01-17T04:25:04.008Z,75.53
2017-01-17T04:26:11.425Z,75.55
2017-01-17T04:26:33.479Z,75.42
2017-01-17T04:27:36.168Z,75.82
2017-01-17T04:27:57.889Z,75.87
2017-01-17T04:28:19.593Z,75.95
2017-01-17T04:29:22.680Z,75.88
2017-01-17T04:29:44.668Z,75.87
2017-01-17T04:30:11.327Z,75.88
2017-01-17T04:30:33.393Z,75.69
2017-01-17T04:30:55.100Z,75.60
2017-01-17T04:31:16.808Z,75.53
2017-01-17T04:31:38.676Z,75.69
2017-01-17T04:32:00.479Z,75.73
2017-01-17T04:32:31.804Z,75.70
2017-01-17T04:32:53.647Z,75.85
2017-01-17T04:33:24.953Z,75.73
2017-01-17T04:33:46.777Z,75.74
2017-01-17T04:34:08.486Z,75.93
2017-01-17T04:34:30.306Z,75.87
2017-01-17T04:34:55.060Z,75.84
2017-01-17T04:35:16.657Z,75.88
2017-01-17T04:35:38.399Z,75.94
2017-01-17T04:36:09.663Z,75.85
2017-01-17T04:36:31.474Z,75.86
2017-01-17T04:36:53.195Z,76.00
2017-01-17T04:37:14.912Z,75.98
2017-01-17T04:37:39.544Z,75.98
2017-01-17T04:38:06.153Z,76.04
2017-01-17T04:38:27.862Z,76.07
2017-01-17T04:38:59.112Z,76.07
2017-01-17T04:39:20.904Z,76.13
2017-01-17T04:39:47.379Z,76.14
2017-01-17T04:40:09.074Z,76.22
2017-01-17T04:40:42.628Z,76.33
2017-01-17T04:41:45.075Z,76.15
2017-01-17T04:42:11.669Z,76.15
2017-01-17T04:42:33.372Z,76.09
2017-01-17T04:43:04.634Z,76.04
2017-01-17T04:43:26.440Z,75.98
2017-01-17T04:43:48.143Z,75.86
2017-01-17T04:44:09.852Z,75.70
2017-01-17T04:44:31.551Z,75.68
2017-01-17T04:44:58.126Z,75.84
2017-01-17T04:45:19.820Z,75.87
2017-01-17T04:45:51.082Z,75.76
2017-01-17T04:46:12.859Z,75.88
2017-01-17T04:47:20.131Z,75.74
2017-01-17T04:47:41.925Z,75.73
2017-01-17T04:48:08.409Z,75.79
2017-01-17T04:48:30.123Z,75.94
2017-01-17T04:48:56.601Z,75.90
2017-01-17T04:49:18.379Z,75.74
2017-01-17T04:49:40.083Z,75.75
2017-01-17T04:50:06.562Z,75.88
2017-01-17T04:50:28.377Z,75.86
2017-01-17T04:50:59.642Z,75.65
2017-01-17T04:51:21.340Z,75.71
2017-01-17T04:51:52.591Z,75.76
2017-01-17T04:52:14.347Z,75.77
2017-01-17T04:52:45.579Z,75.69
2017-01-17T04:53:07.400Z,75.56
2017-01-17T04:53:29.100Z,75.63
2017-01-17T04:53:50.817Z,75.71
2017-01-17T04:54:12.508Z,75.63
2017-01-17T04:54:34.306Z,75.71
2017-01-17T04:55:37.378Z,75.58
2017-01-17T04:55:59.177Z,75.55
2017-01-17T04:56:30.441Z,75.68
2017-01-17T04:56:52.140Z,75.70
2017-01-17T04:57:13.957Z,75.78
2017-01-17T04:57:40.425Z,75.75
2017-01-17T04:58:02.149Z,75.61
2017-01-17T04:58:23.958Z,75.59
2017-01-17T04:58:45.727Z,75.65
2017-01-17T04:59:07.423Z,75.58
2017-01-17T04:59:29.125Z,75.65
2017-01-17T04:59:50.918Z,75.73
2017-01-17T05:00:12.611Z,75.72
2017-01-17T05:00:34.320Z,75.72
2017-01-17T05:01:37.606Z,75.80
2017-01-17T05:01:59.309Z,75.80
2017-01-17T05:02:21.123Z,75.76
2017-01-17T05:02:47.607Z,75.88
2017-01-17T05:03:09.327Z,75.71
2017-01-17T05:03:31.026Z,75.62
2017-01-17T05:03:57.501Z,75.58
2017-01-17T05:04:19.304Z,75.65
2017-01-17T05:05:21.807Z,75.81
2017-01-17T05:05:48.374Z,75.68
2017-01-17T05:06:12.391Z,75.63
2017-01-17T05:06:38.869Z,75.66
2017-01-17T05:07:00.661Z,75.72
2017-01-17T05:07:27.132Z,75.66
2017-01-17T05:07:48.825Z,75.72
2017-01-17T05:08:10.616Z,75.69
2017-01-17T05:08:32.327Z,75.62
2017-01-17T05:08:54.026Z,75.59
2017-01-17T05:09:20.501Z,75.68
2017-01-17T05:09:42.306Z,75.54
2017-01-17T05:10:04.002Z,75.49
2017-01-17T05:10:25.705Z,75.39
2017-01-17T05:10:47.509Z,75.35
2017-01-17T05:11:18.756Z,75.51
2017-01-17T05:11:40.489Z,75.56
2017-01-17T05:12:11.756Z,75.68
2017-01-17T05:12:40.844Z,75.72
2017-01-17T05:13:02.629Z,75.70
2017-01-17T05:13:24.327Z,75.77
2017-01-17T05:13:50.818Z,75.79
2017-01-17T05:14:12.605Z,75.82
2017-01-17T05:14:39.088Z,75.74
2017-01-17T05:15:00.791Z,75.75
2017-01-17T05:15:32.041Z,75.73
2017-01-17T05:15:53.829Z,75.69
2017-01-17T05:16:20.405Z,75.71
2017-01-17T05:16:42.101Z,75.61
2017-01-17T05:17:13.356Z,75.56
2017-01-17T05:17:35.049Z,75.62
2017-01-17T05:17:56.845Z,75.53
2017-01-17T05:18:23.389Z,75.48
2017-01-17T05:18:45.023Z,75.42
2017-01-17T05:19:06.739Z,75.40
2017-01-17T05:19:28.553Z,75.50
2017-01-17T05:19:50.223Z,75.54
2017-01-17T05:20:24.127Z,75.53
2017-01-17T05:20:50.594Z,75.41
2017-01-17T05:21:12.368Z,75.46
2017-01-17T05:22:14.982Z,75.23
2017-01-17T05:22:36.678Z,75.30
2017-01-17T05:22:58.388Z,75.23
2017-01-17T05:23:20.096Z,75.32
2017-01-17T05:23:41.811Z,75.42
2017-01-17T05:24:44.900Z,75.45
2017-01-17T05:25:06.710Z,75.40
2017-01-17T05:26:05.013Z,75.61
2017-01-17T05:26:26.809Z,75.48
2017-01-17T05:26:58.079Z,75.43
2017-01-17T05:27:19.781Z,75.34
2017-01-17T05:27:51.049Z,75.26
2017-01-17T05:28:12.758Z,75.26
2017-01-17T05:29:15.837Z,75.37
2017-01-17T05:29:37.544Z,75.50
2017-01-17T05:29:59.238Z,75.36
2017-01-17T05:30:30.505Z,75.41
2017-01-17T05:30:54.306Z,75.38
2017-01-17T05:31:16.089Z,75.34
2017-01-17T05:31:37.776Z,75.30
2017-01-17T05:32:09.032Z,75.30
2017-01-17T05:32:30.821Z,75.37
2017-01-17T05:32:57.302Z,75.29
2017-01-17T05:33:19.006Z,75.06
2017-01-17T05:33:45.573Z,75.06
2017-01-17T05:34:07.283Z,75.23
2017-01-17T05:34:28.991Z,75.28
2017-01-17T05:34:55.465Z,75.40
2017-01-17T05:35:17.267Z,75.45
2017-01-17T05:35:48.520Z,75.58
2017-01-17T05:36:10.233Z,75.67
2017-01-17T05:36:31.977Z,75.53
2017-01-17T05:36:53.727Z,75.45
2017-01-17T05:37:18.182Z,75.47
2017-01-17T05:37:40.026Z,75.45
2017-01-17T05:38:01.766Z,75.38
2017-01-17T05:38:28.252Z,75.44
2017-01-17T05:38:54.739Z,75.45
2017-01-17T05:39:16.485Z,75.28
2017-01-17T05:39:40.607Z,75.38
2017-01-17T05:40:02.300Z,75.37
2017-01-17T05:40:24.022Z,75.35
2017-01-17T05:40:55.270Z,75.22
2017-01-17T05:41:16.963Z,75.23
2017-01-17T05:41:38.747Z,75.28
2017-01-17T05:42:05.251Z,75.37
2017-01-17T05:42:26.953Z,75.03
2017-01-17T05:42:53.427Z,75.12
2017-01-17T05:43:15.126Z,75.12
2017-01-17T05:43:36.841Z,75.12
2017-01-17T05:43:58.550Z,75.04
2017-01-17T05:44:20.249Z,75.01
2017-01-17T05:44:51.495Z,74.94
2017-01-17T05:45:13.190Z,75.03
2017-01-17T05:45:34.900Z,74.92
2017-01-17T05:46:23.096Z,74.93
2017-01-17T05:46:44.793Z,75.07
2017-01-17T05:47:11.272Z,75.14
2017-01-17T05:47:34.074Z,75.03
2017-01-17T05:47:56.345Z,74.99
2017-01-17T05:48:18.140Z,74.97
2017-01-17T05:49:21.338Z,75.02
2017-01-17T05:49:43.248Z,75.07
2017-01-17T05:50:55.303Z,75.03
2017-01-17T05:51:17.113Z,75.08
2017-01-17T05:51:38.914Z,75.02
2017-01-17T05:52:00.621Z,75.04
2017-01-17T05:52:22.339Z,75.11
2017-01-17T05:52:44.054Z,74.99
2017-01-17T05:53:10.627Z,75.11
2017-01-17T05:53:32.332Z,75.04
2017-01-17T05:54:03.590Z,75.13
2017-01-17T05:54:25.366Z,75.19
2017-01-17T05:55:28.418Z,74.75
2017-01-17T05:55:50.200Z,74.67
2017-01-17T05:56:16.675Z,74.68
2017-01-17T05:56:38.377Z,74.65
2017-01-17T05:57:09.632Z,74.84
2017-01-17T05:57:31.440Z,74.84
2017-01-17T05:57:57.920Z,74.69
2017-01-17T05:58:19.647Z,74.69
2017-01-17T05:59:26.927Z,74.59
2017-01-17T05:59:48.709Z,74.60
2017-01-17T06:00:10.414Z,74.53
2017-01-17T06:00:41.675Z,74.53
2017-01-17T06:01:03.456Z,74.62
2017-01-17T06:01:25.164Z,74.62
2017-01-17T06:01:51.641Z,74.77
2017-01-17T06:02:13.433Z,74.77
2017-01-17T06:02:39.904Z,74.85
2017-01-17T06:03:01.605Z,74.83